Time;durP1;ratioP1;P1;durP2;ratioP2;P2;SDS_P1;SDS_P2;PMS_P1;PMS_P2;Temp;Humidity;BMP_temperature;BMP_pressure;BME280_temperature;BME280_humidity;BME280_pressure;Samples;Min_cycle;Max_cycle;Signal;HPM_P1;HPM_P2
2022/01/25 00:09:22;;;;;;;6.60;3.28;;;;;;;;;;5071081;28;20028;-64
2022/01/25 00:25:59;;;;;;;6.75;4.40;;;;;;;;;;5115459;28;20027;-68
2022/01/25 00:31:10;;;;;;;;;;;;;;;;;;5115105;28;20063;-61
2022/01/25 00:33:38;;;;;;;9.27;4.82;;;;;;;;;;5110599;27;19920;-63
2022/01/25 00:36:06;;;;;;;8.02;4.60;;;;;;;;;;5094848;28;20028;-62
2022/01/25 00:38:32;;;;;;;8.48;4.38;;;;;;;;;;5094823;28;20074;-64
2022/01/25 00:40:57;;;;;;;8.73;4.30;;;;;;;;;;5093632;28;20023;-63
2022/01/25 00:43:26;;;;;;;7.75;3.92;;;;;;;;;;5094612;28;20036;-63
2022/01/25 00:45:54;;;;;;;8.63;4.30;;;;;;;;;;5094664;28;20020;-65
2022/01/25 00:48:31;;;;;;;8.65;4.53;;;;;;;;;;5094635;28;20407;-63
2022/01/25 00:51:19;;;;;;;6.63;4.03;;;;;;;;;;5094386;28;20094;-63
2022/01/25 00:56:23;;;;;;;7.28;4.00;;;;;;;;;;5094634;28;20028;-63
2022/01/25 00:58:50;;;;;;;6.68;4.47;;;;;;;;;;5094206;28;20024;-63
2022/01/25 01:01:17;;;;;;;6.00;3.92;;;;;;;;;;5094411;28;20036;-61
2022/01/25 01:03:43;;;;;;;8.45;3.72;;;;;;;;;;5094258;28;20039;-63
2022/01/25 01:06:09;;;;;;;7.18;4.28;;;;;;;;;;5094209;28;20123;-62
2022/01/25 01:08:34;;;;;;;9.10;4.28;;;;;;;;;;5093992;28;20154;-62
2022/01/25 01:11:04;;;;;;;7.45;3.67;;;;;;;;;;5094320;28;20088;-62
2022/01/25 01:30:06;;;;;;;7.93;4.32;;;;;;;;;;5073493;28;20094;-62
2022/01/25 01:48:00;;;;;;;10.65;4.97;;;;;;;;;;5053327;28;20063;-62
2022/01/25 01:50:29;;;;;;;10.32;4.93;;;;;;;;;;5052978;28;20115;-64
2022/01/25 01:52:56;;;;;;;8.30;4.00;;;;;;;;;;5052907;28;20428;-65
2022/01/25 01:55:22;;;;;;;9.27;4.63;;;;;;;;;;5052767;28;20057;-65
2022/01/25 01:57:49;;;;;;;8.80;4.93;;;;;;;;;;5052441;28;20546;-64
2022/01/25 02:00:18;;;;;;;8.20;4.20;;;;;;;;;;5053113;28;20033;-72
2022/01/25 02:02:44;;;;;;;8.00;4.53;;;;;;;;;;5052977;28;20491;-62
2022/01/25 02:05:09;;;;;;;8.38;5.50;;;;;;;;;;5052916;28;20059;-65
2022/01/25 02:07:35;;;;;;;9.05;4.25;;;;;;;;;;5052861;28;20043;-62
2022/01/25 02:10:02;;;;;;;10.02;4.82;;;;;;;;;;5054759;28;20041;-63
2022/01/25 02:12:28;;;;;;;10.13;5.20;;;;;;;;;;5054876;28;20021;-65
2022/01/25 02:14:55;;;;;;;9.75;4.80;;;;;;;;;;5053217;28;20059;-66
2022/01/25 02:17:57;;;;;;;10.90;4.95;;;;;;;;;;5053513;28;20434;-63
2022/01/25 02:23:21;;;;;;;8.45;4.45;;;;;;;;;;5052661;28;20044;-64
2022/01/25 02:25:50;;;;;;;9.80;5.20;;;;;;;;;;5052442;28;20037;-62
2022/01/25 02:28:16;;;;;;;10.60;6.00;;;;;;;;;;5052203;28;20396;-61
2022/01/25 02:30:44;;;;;;;10.98;5.35;;;;;;;;;;5053513;28;20721;-61
2022/01/25 02:33:09;;;;;;;7.95;4.22;;;;;;;;;;5051944;28;20025;-62
2022/01/25 02:35:36;;;;;;;15.45;5.70;;;;;;;;;;5052349;28;20037;-63
2022/01/25 02:38:03;;;;;;;13.23;6.10;;;;;;;;;;5052035;28;20097;-62
2022/01/25 02:40:29;;;;;;;7.95;4.75;;;;;;;;;;5052423;28;20751;-63
2022/01/25 02:42:55;;;;;;;10.88;6.25;;;;;;;;;;5052417;28;20056;-61
2022/01/25 02:45:21;;;;;;;10.95;5.18;;;;;;;;;;5052017;28;20036;-62
2022/01/25 02:50:32;;;;;;;8.98;5.80;;;;;;;;;;5052349;28;20414;-62
2022/01/25 02:52:57;;;;;;;9.95;5.57;;;;;;;;;;5052054;28;20037;-61
2022/01/25 02:55:23;;;;;;;9.73;5.35;;;;;;;;;;5052211;28;20029;-61
2022/01/25 02:57:49;;;;;;;9.13;5.00;;;;;;;;;;5052861;28;20098;-63
2022/01/25 03:00:16;;;;;;;10.75;5.45;;;;;;;;;;5052061;28;20498;-62
2022/01/25 03:02:42;;;;;;;9.88;5.25;;;;;;;;;;5051920;28;20099;-62
2022/01/25 03:05:09;;;;;;;10.95;5.25;;;;;;;;;;5051762;28;20504;-61
2022/01/25 03:07:38;;;;;;;10.63;5.85;;;;;;;;;;5051808;28;20112;-62
2022/01/25 03:10:05;;;;;;;12.15;5.40;;;;;;;;;;5051987;28;20033;-62
2022/01/25 03:12:34;;;;;;;11.15;5.78;;;;;;;;;;5051996;28;20021;-63
2022/01/25 03:15:23;;;;;;;13.32;5.97;;;;;;;;;;5051944;28;20086;-62
2022/01/25 03:17:55;;;;;;;13.95;6.65;;;;;;;;;;5051469;28;20049;-62
2022/01/25 03:20:46;;;;;;;11.13;5.90;;;;;;;;;;5051839;28;20032;-63
2022/01/25 03:23:20;;;;;;;12.55;6.43;;;;;;;;;;5051586;28;20120;-63
2022/01/25 03:25:48;;;;;;;13.57;6.47;;;;;;;;;;5066250;28;20033;-62
2022/01/25 03:28:16;;;;;;;12.63;5.95;;;;;;;;;;5071234;28;20047;-63
2022/01/25 03:30:42;;;;;;;10.13;5.57;;;;;;;;;;5051881;28;20040;-62
2022/01/25 03:33:07;;;;;;;13.77;5.75;;;;;;;;;;5051677;28;20041;-63
2022/01/25 03:35:33;;;;;;;11.93;6.50;;;;;;;;;;5051540;28;20033;-61
2022/01/25 03:37:59;;;;;;;10.25;5.70;;;;;;;;;;5051639;28;20476;-62
2022/01/25 03:40:25;;;;;;;11.95;6.00;;;;;;;;;;5051360;28;20123;-61
2022/01/25 03:42:50;;;;;;;12.02;6.13;;;;;;;;;;5050933;28;20021;-61
2022/01/25 03:45:22;;;;;;;11.82;5.53;;;;;;;;;;5053275;28;20032;-63
2022/01/25 03:48:00;;;;;;;12.43;6.03;;;;;;;;;;5055412;28;20029;-62
2022/01/25 03:50:26;;;;;;;11.45;5.85;;;;;;;;;;5055652;28;20044;-61
2022/01/25 03:52:53;;;;;;;13.82;6.82;;;;;;;;;;5055306;28;20032;-67
2022/01/25 03:55:19;;;;;;;10.95;5.85;;;;;;;;;;5057585;28;20082;-66
2022/01/25 03:57:45;;;;;;;14.50;6.45;;;;;;;;;;5075305;28;20020;-67
2022/01/25 04:00:12;;;;;;;11.27;6.15;;;;;;;;;;5074049;28;20162;-68
2022/01/25 04:02:46;;;;;;;16.00;6.65;;;;;;;;;;5075212;28;20161;-63
2022/01/25 04:05:20;;;;;;;15.02;6.88;;;;;;;;;;5075158;28;20499;-65
2022/01/25 04:07:50;;;;;;;14.13;6.63;;;;;;;;;;5074939;28;20029;-67
2022/01/25 04:10:19;;;;;;;11.30;6.05;;;;;;;;;;5074870;28;20036;-67
2022/01/25 04:12:46;;;;;;;11.30;5.97;;;;;;;;;;5074132;28;20426;-63
2022/01/25 04:15:13;;;;;;;12.85;5.82;;;;;;;;;;5073546;28;20027;-63
2022/01/25 04:17:42;;;;;;;17.60;9.07;;;;;;;;;;5074117;28;20043;-62
2022/01/25 04:20:15;;;;;;;14.52;7.53;;;;;;;;;;5064375;28;20090;-62
2022/01/25 04:25:26;;;;;;;15.43;7.18;;;;;;;;;;5072861;28;20037;-62
2022/01/25 04:27:52;;;;;;;10.73;5.43;;;;;;;;;;5075390;28;20044;-62
2022/01/25 04:30:18;;;;;;;12.82;6.80;;;;;;;;;;5075497;28;20028;-62
2022/01/25 04:32:48;;;;;;;12.25;6.55;;;;;;;;;;5073599;28;20040;-62
2022/01/25 04:35:28;;;;;;;15.07;6.80;;;;;;;;;;5075465;28;20090;-62
2022/01/25 04:49:12;;;;;;;11.73;5.90;;;;;;;;;;5073799;28;20044;-64
2022/01/25 04:57:23;;;;;;;20.42;8.07;;;;;;;;;;5074470;28;20029;-63
2022/01/25 05:02:48;;;;;;;24.90;9.60;;;;;;;;;;5074842;28;20025;-62
2022/01/25 05:10:18;;;;;;;24.90;7.03;;;;;;;;;;5074368;28;20021;-62
2022/01/25 05:12:50;;;;;;;12.98;6.97;;;;;;;;;;5074372;28;20068;-62
2022/01/25 05:18:10;;;;;;;19.40;7.80;;;;;;;;;;5072448;28;20037;-61
2022/01/25 05:23:20;;;;;;;16.25;6.85;;;;;;;;;;5067121;28;20409;-63
2022/01/25 05:25:46;;;;;;;16.42;7.85;;;;;;;;;;5093983;28;20036;-64
2022/01/25 05:28:12;;;;;;;17.42;7.00;;;;;;;;;;5094142;28;20048;-63
2022/01/25 05:30:37;;;;;;;15.52;7.55;;;;;;;;;;5087130;28;20514;-66
2022/01/25 05:33:03;;;;;;;20.83;5.75;;;;;;;;;;5093553;28;20058;-64
2022/01/25 05:35:29;;;;;;;15.40;7.03;;;;;;;;;;5093798;28;20523;-68
2022/01/25 05:37:55;;;;;;;13.55;6.55;;;;;;;;;;5093188;28;20028;-65
2022/01/25 05:40:39;;;;;;;16.23;7.40;;;;;;;;;;5082524;28;20467;-65
2022/01/25 05:48:14;;;;;;;23.75;7.10;;;;;;;;;;5065004;28;20051;-66
2022/01/25 05:50:40;;;;;;;14.23;7.10;;;;;;;;;;5053450;28;20211;-66
2022/01/25 05:53:06;;;;;;;13.77;6.95;;;;;;;;;;5053150;28;20140;-66
2022/01/25 05:55:31;;;;;;;15.05;7.72;;;;;;;;;;5053376;28;20459;-66
2022/01/25 05:57:57;;;;;;;15.88;7.90;;;;;;;;;;5052891;28;20055;-67
2022/01/25 06:00:23;;;;;;;14.63;6.85;;;;;;;;;;5052719;28;20100;-68
2022/01/25 06:02:54;;;;;;;14.35;7.75;;;;;;;;;;5051647;28;20111;-70
2022/01/25 06:05:20;;;;;;;12.85;7.15;;;;;;;;;;5053246;28;20029;-65
2022/01/25 06:07:45;;;;;;;14.15;7.13;;;;;;;;;;5050676;28;20028;-67
2022/01/25 06:10:11;;;;;;;12.68;6.93;;;;;;;;;;5052553;28;20480;-65
2022/01/25 06:12:37;;;;;;;12.88;7.55;;;;;;;;;;5056745;28;20158;-66
2022/01/25 06:15:04;;;;;;;16.20;7.43;;;;;;;;;;5068473;28;20474;-66
2022/01/25 06:17:29;;;;;;;16.77;7.70;;;;;;;;;;5068181;28;20104;-68
2022/01/25 06:19:55;;;;;;;16.65;8.32;;;;;;;;;;5070285;28;20108;-66
2022/01/25 06:22:22;;;;;;;20.88;9.15;;;;;;;;;;5072707;28;20380;-67
2022/01/25 06:24:47;;;;;;;14.45;8.07;;;;;;;;;;5072001;28;20039;-68
2022/01/25 06:27:13;;;;;;;17.13;8.32;;;;;;;;;;5072001;28;20398;-67
2022/01/25 06:29:40;;;;;;;17.25;8.52;;;;;;;;;;5072136;28;20111;-67
2022/01/25 06:32:06;;;;;;;19.17;8.88;;;;;;;;;;5072260;28;20036;-67
2022/01/25 06:34:33;;;;;;;15.88;7.90;;;;;;;;;;5072110;28;20123;-65
2022/01/25 06:36:58;;;;;;;18.02;8.50;;;;;;;;;;5072248;28;20043;-65
2022/01/25 06:39:24;;;;;;;16.08;7.70;;;;;;;;;;5072530;28;20569;-66
2022/01/25 06:41:51;;;;;;;16.15;7.95;;;;;;;;;;5072416;28;20027;-66
2022/01/25 06:44:17;;;;;;;16.48;9.05;;;;;;;;;;5072175;28;20061;-65
2022/01/25 06:46:45;;;;;;;12.90;7.47;;;;;;;;;;5072099;28;20108;-66
2022/01/25 06:49:13;;;;;;;12.98;7.38;;;;;;;;;;5071836;28;20044;-65
2022/01/25 06:51:39;;;;;;;15.50;7.60;;;;;;;;;;5072308;28;20025;-66
2022/01/25 06:54:06;;;;;;;17.20;7.90;;;;;;;;;;5070668;28;20498;-65
2022/01/25 06:56:32;;;;;;;15.98;8.10;;;;;;;;;;5071500;28;20029;-67
2022/01/25 06:58:57;;;;;;;16.73;8.82;;;;;;;;;;5071412;28;20047;-66
2022/01/25 07:01:23;;;;;;;15.93;7.22;;;;;;;;;;5071600;28;20121;-65
2022/01/25 07:03:49;;;;;;;14.80;7.93;;;;;;;;;;5071836;28;20120;-66
2022/01/25 07:06:15;;;;;;;13.32;7.57;;;;;;;;;;5072065;28;20052;-67
2022/01/25 07:08:44;;;;;;;15.82;7.22;;;;;;;;;;5072835;28;20036;-66
2022/01/25 07:11:09;;;;;;;15.43;7.40;;;;;;;;;;5071628;28;20028;-66
2022/01/25 07:13:35;;;;;;;18.83;7.45;;;;;;;;;;5071932;28;20086;-66
2022/01/25 07:16:01;;;;;;;13.60;7.18;;;;;;;;;;5068098;28;20032;-67
2022/01/25 07:18:27;;;;;;;15.63;7.65;;;;;;;;;;5051248;28;20037;-68
2022/01/25 07:20:53;;;;;;;21.02;9.15;;;;;;;;;;5051551;28;20029;-66
2022/01/25 07:23:19;;;;;;;14.02;7.28;;;;;;;;;;5051303;28;20380;-68
2022/01/25 07:25:44;;;;;;;14.88;6.50;;;;;;;;;;5051266;28;20040;-68
2022/01/25 07:28:10;;;;;;;13.23;6.63;;;;;;;;;;5051237;28;20045;-66
2022/01/25 07:30:36;;;;;;;10.00;6.07;;;;;;;;;;5051612;28;20033;-67
2022/01/25 07:33:05;;;;;;;12.38;6.90;;;;;;;;;;5051621;28;20044;-67
2022/01/25 07:35:35;;;;;;;11.95;6.60;;;;;;;;;;5051773;28;20537;-65
2022/01/25 07:38:02;;;;;;;12.60;6.35;;;;;;;;;;5064064;28;20033;-67
2022/01/25 07:40:28;;;;;;;13.00;5.57;;;;;;;;;;5071453;28;20047;-66
2022/01/25 07:42:54;;;;;;;13.50;6.97;;;;;;;;;;5071982;28;20514;-68
2022/01/25 07:45:21;;;;;;;14.38;6.70;;;;;;;;;;5071863;28;20073;-65
2022/01/25 07:47:47;;;;;;;16.10;6.38;;;;;;;;;;5071321;28;20142;-69
2022/01/25 07:50:14;;;;;;;15.30;5.97;;;;;;;;;;5071228;28;20032;-67
2022/01/25 07:52:40;;;;;;;13.27;6.25;;;;;;;;;;5070529;28;20037;-68
2022/01/25 07:55:07;;;;;;;13.60;5.28;;;;;;;;;;5070948;28;20025;-72
2022/01/25 07:57:33;;;;;;;11.15;6.10;;;;;;;;;;5071326;28;20071;-72
2022/01/25 07:59:59;;;;;;;11.27;6.28;;;;;;;;;;5071150;28;20103;-68
2022/01/25 08:02:26;;;;;;;14.82;5.10;;;;;;;;;;5070811;28;20032;-73
2022/01/25 08:04:52;;;;;;;10.85;5.63;;;;;;;;;;5070903;28;20027;-73
2022/01/25 08:07:18;;;;;;;21.08;8.82;;;;;;;;;;5070377;28;20112;-71
2022/01/25 08:09:44;;;;;;;13.00;5.60;;;;;;;;;;5070963;28;20020;-74
2022/01/25 08:12:11;;;;;;;10.32;5.70;;;;;;;;;;5071190;28;20098;-72
2022/01/25 08:14:41;;;;;;;11.60;5.63;;;;;;;;;;5069731;28;20099;-70
2022/01/25 08:17:07;;;;;;;10.55;5.78;;;;;;;;;;5070980;28;20068;-76
2022/01/25 08:19:33;;;;;;;16.70;6.05;;;;;;;;;;5071019;28;20412;-77
2022/01/25 08:21:59;;;;;;;16.90;6.47;;;;;;;;;;5052187;28;20037;-75
2022/01/25 08:24:25;;;;;;;12.50;6.20;;;;;;;;;;5054431;28;20014;-71
2022/01/25 08:26:51;;;;;;;12.48;6.07;;;;;;;;;;5058607;28;20033;-77
2022/01/25 08:29:17;;;;;;;13.30;5.90;;;;;;;;;;5070842;28;20380;-71
2022/01/25 08:31:43;;;;;;;12.05;5.30;;;;;;;;;;5072588;28;20032;-68
2022/01/25 08:34:11;;;;;;;12.13;5.70;;;;;;;;;;5074213;28;20562;-68
2022/01/25 08:36:38;;;;;;;12.65;5.35;;;;;;;;;;5074633;28;20036;-68
2022/01/25 08:39:04;;;;;;;19.10;6.15;;;;;;;;;;5074978;28;20387;-67
2022/01/25 08:41:30;;;;;;;11.05;5.40;;;;;;;;;;5074709;28;20349;-67
2022/01/25 08:43:56;;;;;;;9.55;5.05;;;;;;;;;;5074317;28;20024;-67
2022/01/25 08:46:22;;;;;;;15.45;5.47;;;;;;;;;;5074782;28;20068;-67
2022/01/25 08:48:48;;;;;;;13.40;5.43;;;;;;;;;;5074281;28;20104;-67
2022/01/25 08:51:14;;;;;;;12.55;5.65;;;;;;;;;;5074200;28;20033;-67
2022/01/25 08:53:41;;;;;;;12.45;5.90;;;;;;;;;;5073800;28;20032;-67
2022/01/25 08:56:07;;;;;;;13.25;5.25;;;;;;;;;;5073884;28;20029;-68
2022/01/25 08:58:33;;;;;;;9.05;4.28;;;;;;;;;;5073851;28;20394;-67
2022/01/25 09:00:59;;;;;;;5.53;3.58;;;;;;;;;;5073960;28;20123;-69
2022/01/25 09:03:25;;;;;;;8.20;4.53;;;;;;;;;;5074234;28;20100;-69
2022/01/25 09:05:51;;;;;;;7.75;4.50;;;;;;;;;;5073967;28;20115;-69
2022/01/25 09:08:21;;;;;;;9.20;4.35;;;;;;;;;;5073664;28;20048;-68
2022/01/25 09:10:51;;;;;;;9.30;4.60;;;;;;;;;;5073459;28;20037;-69
2022/01/25 09:13:18;;;;;;;10.32;5.00;;;;;;;;;;5074138;28;20123;-69
2022/01/25 09:15:44;;;;;;;6.68;3.97;;;;;;;;;;5073977;28;20060;-71
2022/01/25 09:18:10;;;;;;;8.65;4.78;;;;;;;;;;5073900;28;20017;-68
2022/01/25 09:20:36;;;;;;;7.28;4.18;;;;;;;;;;5073311;28;20090;-70
2022/01/25 09:23:02;;;;;;;8.45;5.18;;;;;;;;;;5073577;28;20112;-69
2022/01/25 09:25:29;;;;;;;6.22;3.88;;;;;;;;;;5073988;28;20048;-70
2022/01/25 09:27:55;;;;;;;8.63;4.55;;;;;;;;;;5073661;28;20115;-66
2022/01/25 09:30:21;;;;;;;7.63;4.30;;;;;;;;;;5073448;28;20032;-67
2022/01/25 09:32:47;;;;;;;6.80;4.00;;;;;;;;;;5073278;28;20039;-71
2022/01/25 09:35:13;;;;;;;6.38;4.18;;;;;;;;;;5071923;28;20364;-69
2022/01/25 09:37:39;;;;;;;11.05;4.97;;;;;;;;;;5073522;28;20024;-69
2022/01/25 09:40:06;;;;;;;6.47;3.60;;;;;;;;;;5073688;28;20494;-67
2022/01/25 09:42:32;;;;;;;7.35;4.38;;;;;;;;;;5072635;28;20017;-66
2022/01/25 09:44:58;;;;;;;8.07;4.50;;;;;;;;;;5073396;28;20344;-67
2022/01/25 09:47:24;;;;;;;7.07;4.43;;;;;;;;;;5072811;28;20028;-68
2022/01/25 09:49:50;;;;;;;8.15;4.40;;;;;;;;;;5072647;28;20441;-77
2022/01/25 09:52:18;;;;;;;10.55;4.57;;;;;;;;;;5072881;28;20017;-72
2022/01/25 09:54:53;;;;;;;10.73;6.05;;;;;;;;;;5073038;28;20041;-69
2022/01/25 09:57:19;;;;;;;10.60;5.00;;;;;;;;;;5073160;28;20063;-73
2022/01/25 09:59:45;;;;;;;8.00;4.82;;;;;;;;;;5072502;28;20047;-74
2022/01/25 10:02:11;;;;;;;7.45;4.22;;;;;;;;;;5072736;28;20131;-76
2022/01/25 10:04:40;;;;;;;10.32;4.03;;;;;;;;;;5073162;28;20076;-74
2022/01/25 10:07:09;;;;;;;8.38;4.35;;;;;;;;;;5072725;28;20041;-73
2022/01/25 10:09:39;;;;;;;6.22;3.83;;;;;;;;;;5073267;28;20107;-75
2022/01/25 10:12:23;;;;;;;7.75;4.55;;;;;;;;;;5073051;28;20111;-72
2022/01/25 10:15:01;;;;;;;8.40;4.40;;;;;;;;;;5072208;28;20040;-69
2022/01/25 10:17:34;;;;;;;11.45;5.60;;;;;;;;;;5072722;28;20498;-69
2022/01/25 10:20:01;;;;;;;;;;;;;;;;;;5073299;28;20033;-77
2022/01/25 10:22:27;;;;;;;8.45;4.28;;;;;;;;;;5072444;28;19913;-67
2022/01/25 10:24:53;;;;;;;7.55;4.25;;;;;;;;;;5072571;28;20090;-69
2022/01/25 10:27:59;;;;;;;5.78;3.80;;;;;;;;;;5072467;28;20036;-77
2022/01/25 10:30:11;;;;;;;8.32;3.63;;;;;;;;;;5070752;28;20036;-71
2022/01/25 10:32:39;;;;;;;7.32;4.30;;;;;;;;;;5071580;28;20036;-72
2022/01/25 10:35:14;;;;;;;7.07;3.92;;;;;;;;;;5053709;28;20120;-72
2022/01/25 10:37:43;;;;;;;11.60;3.65;;;;;;;;;;5052090;28;20036;-75
2022/01/25 10:40:09;;;;;;;7.40;4.07;;;;;;;;;;5052340;28;20121;-79
2022/01/25 10:42:35;;;;;;;12.13;4.78;;;;;;;;;;5052019;28;20037;-74
2022/01/25 10:45:03;;;;;;;7.03;4.30;;;;;;;;;;5051779;28;20029;-78
2022/01/25 10:47:44;;;;;;;6.85;4.28;;;;;;;;;;5052073;28;20101;-69
2022/01/25 10:50:20;;;;;;;10.80;4.50;;;;;;;;;;5052083;28;20104;-74
2022/01/25 10:52:48;;;;;;;6.38;3.88;;;;;;;;;;5051693;28;20171;-74
2022/01/25 10:55:16;;;;;;;10.82;4.70;;;;;;;;;;5051592;28;20017;-74
2022/01/25 10:57:42;;;;;;;9.23;4.70;;;;;;;;;;5051998;28;20037;-75
2022/01/25 11:00:11;;;;;;;9.95;4.65;;;;;;;;;;5052237;28;20044;-74
2022/01/25 11:02:50;;;;;;;5.82;3.65;;;;;;;;;;5052042;28;20033;-73
2022/01/25 11:05:18;;;;;;;33.35;14.07;;;;;;;;;;5051495;28;20056;-72
2022/01/25 11:07:45;;;;;;;9.77;5.03;;;;;;;;;;5051565;28;20036;-72
2022/01/25 11:10:20;;;;;;;11.75;5.65;;;;;;;;;;5052076;28;20036;-77
2022/01/25 11:13:02;;;;;;;10.82;5.25;;;;;;;;;;5051879;28;20098;-74
2022/01/25 11:15:27;;;;;;;11.50;5.63;;;;;;;;;;5051620;28;20112;-71
2022/01/25 11:17:53;;;;;;;9.07;4.97;;;;;;;;;;5052133;28;20048;-70
2022/01/25 11:20:19;;;;;;;8.52;4.90;;;;;;;;;;5053429;28;20032;-74
2022/01/25 11:22:45;;;;;;;14.45;6.22;;;;;;;;;;5051850;28;20044;-75
2022/01/25 11:25:17;;;;;;;12.30;7.10;;;;;;;;;;5050425;28;20508;-74
2022/01/25 11:27:44;;;;;;;10.98;5.55;;;;;;;;;;5051684;28;20029;-72
2022/01/25 11:30:13;;;;;;;9.23;5.45;;;;;;;;;;5051425;28;20037;-72
2022/01/25 11:32:43;;;;;;;8.75;5.22;;;;;;;;;;5050882;28;20102;-74
2022/01/25 11:35:12;;;;;;;12.25;6.40;;;;;;;;;;5051411;28;20033;-79
2022/01/25 11:37:42;;;;;;;10.20;4.93;;;;;;;;;;5051234;28;20036;-77
2022/01/25 11:40:26;;;;;;;10.32;5.03;;;;;;;;;;5051396;28;20045;-78
2022/01/25 11:42:55;;;;;;;9.82;5.50;;;;;;;;;;5051546;28;20064;-73
2022/01/25 11:45:23;;;;;;;8.65;5.15;;;;;;;;;;5050602;28;20047;-77
2022/01/25 11:47:51;;;;;;;8.77;4.60;;;;;;;;;;5050859;28;20025;-77
2022/01/25 11:50:17;;;;;;;7.28;4.18;;;;;;;;;;5051011;28;20376;-74
2022/01/25 11:52:55;;;;;;;10.60;5.80;;;;;;;;;;5050536;28;20029;-77
2022/01/25 11:55:27;;;;;;;31.60;16.10;;;;;;;;;;5066111;28;20035;-70
2022/01/25 11:58:03;;;;;;;15.88;6.72;;;;;;;;;;5064999;28;20068;-74
2022/01/25 12:00:46;;;;;;;12.23;6.15;;;;;;;;;;5064601;28;20033;-72
2022/01/25 12:03:44;;;;;;;10.93;5.82;;;;;;;;;;5060243;28;20505;-76
2022/01/25 12:06:27;;;;;;;10.93;6.25;;;;;;;;;;5061013;28;20045;-80
2022/01/25 12:09:17;;;;;;;14.77;8.57;;;;;;;;;;5074820;28;20067;-82
2022/01/25 12:11:57;;;;;;;14.15;6.90;;;;;;;;;;5074955;28;20040;-78
2022/01/25 12:14:40;;;;;;;11.52;6.68;;;;;;;;;;5075408;28;20032;-76
2022/01/25 12:17:06;;;;;;;12.00;5.90;;;;;;;;;;5075306;28;20395;-71
2022/01/25 12:19:39;;;;;;;16.60;9.02;;;;;;;;;;5075015;28;20028;-68
2022/01/25 12:22:14;;;;;;;11.32;5.72;;;;;;;;;;5074492;28;20028;-67
2022/01/25 12:24:58;;;;;;;11.65;6.60;;;;;;;;;;5074825;28;20115;-69
2022/01/25 12:28:07;;;;;;;10.32;5.80;;;;;;;;;;5075016;28;20032;-69
2022/01/25 12:30:44;;;;;;;19.58;7.53;;;;;;;;;;5074789;28;20098;-69
2022/01/25 12:33:19;;;;;;;9.07;5.63;;;;;;;;;;5073374;28;20032;-70
2022/01/25 12:35:50;;;;;;;9.90;5.00;;;;;;;;;;5074202;28;20386;-70
2022/01/25 12:38:22;;;;;;;14.90;7.15;;;;;;;;;;5073873;28;20052;-72
2022/01/25 12:40:48;;;;;;;12.52;5.20;;;;;;;;;;5073557;28;20033;-75
2022/01/25 12:43:39;;;;;;;10.45;5.82;;;;;;;;;;5074564;28;20036;-71
2022/01/25 12:46:16;;;;;;;10.18;5.38;;;;;;;;;;5074780;28;20046;-72
2022/01/25 12:48:48;;;;;;;12.88;6.03;;;;;;;;;;5078284;28;20040;-69
2022/01/25 12:51:24;;;;;;;15.07;7.07;;;;;;;;;;5076959;28;20036;-70
2022/01/25 12:53:53;;;;;;;14.13;6.60;;;;;;;;;;5074667;28;20555;-68
2022/01/25 12:56:27;;;;;;;10.25;5.53;;;;;;;;;;5068190;28;20038;-75
2022/01/25 12:59:02;;;;;;;12.23;6.95;;;;;;;;;;5074695;28;20036;-71
2022/01/25 13:01:28;;;;;;;12.68;7.07;;;;;;;;;;5072829;28;20059;-67
2022/01/25 13:04:01;;;;;;;12.07;6.43;;;;;;;;;;5073577;28;20028;-69
2022/01/25 13:06:36;;;;;;;13.68;6.97;;;;;;;;;;5073443;28;20033;-71
2022/01/25 13:09:22;;;;;;;12.52;6.70;;;;;;;;;;5073371;28;20505;-68
2022/01/25 13:17:14;;;;;;;12.98;6.68;;;;;;;;;;5073429;28;20122;-73
2022/01/25 13:19:46;;;;;;;14.18;7.13;;;;;;;;;;5073297;28;20056;-71
2022/01/25 13:22:21;;;;;;;15.05;7.65;;;;;;;;;;5073941;28;20029;-71
2022/01/25 13:25:33;;;;;;;13.95;6.63;;;;;;;;;;5073814;28;20440;-72
2022/01/25 13:28:09;;;;;;;13.55;7.22;;;;;;;;;;5073660;28;20040;-71
2022/01/25 13:30:41;;;;;;;14.05;6.38;;;;;;;;;;5073993;28;20540;-74
2022/01/25 13:33:14;;;;;;;8.55;4.82;;;;;;;;;;5071980;28;20025;-72
2022/01/25 13:35:47;;;;;;;11.57;5.75;;;;;;;;;;5073185;28;20024;-72
2022/01/25 13:38:20;;;;;;;9.00;5.68;;;;;;;;;;5072513;28;20080;-71
2022/01/25 13:40:59;;;;;;;9.55;4.70;;;;;;;;;;5073720;28;20036;-72
2022/01/25 13:46:33;;;;;;;11.30;6.55;;;;;;;;;;5073617;28;20052;-71
2022/01/25 13:49:07;;;;;;;19.13;11.05;;;;;;;;;;5072992;28;20032;-70
2022/01/25 13:52:04;;;;;;;13.80;7.35;;;;;;;;;;5073301;28;20028;-72
2022/01/25 13:54:30;;;;;;;11.90;5.80;;;;;;;;;;5061258;28;20048;-72
2022/01/25 13:56:57;;;;;;;14.80;8.95;;;;;;;;;;5073525;28;20111;-71
2022/01/25 13:59:25;;;;;;;13.25;7.80;;;;;;;;;;5073493;28;20033;-71
2022/01/25 14:01:51;;;;;;;14.75;7.80;;;;;;;;;;5072448;28;20021;-71
2022/01/25 14:04:20;;;;;;;13.55;7.53;;;;;;;;;;5072732;28;20041;-71
2022/01/25 14:06:52;;;;;;;9.27;5.50;;;;;;;;;;5055106;28;20028;-72
2022/01/25 14:09:33;;;;;;;12.95;6.28;;;;;;;;;;5073352;28;20071;-71
2022/01/25 14:25:42;;;;;;;10.82;6.18;;;;;;;;;;5073845;28;20047;-72
2022/01/25 14:28:15;;;;;;;9.50;6.03;;;;;;;;;;5072811;28;20036;-69
2022/01/25 14:30:45;;;;;;;12.02;6.55;;;;;;;;;;5073551;28;20040;-70
2022/01/25 14:33:16;;;;;;;15.27;7.53;;;;;;;;;;5073886;28;20372;-71
2022/01/25 14:35:56;;;;;;;17.73;7.60;;;;;;;;;;5073232;28;20127;-70
2022/01/25 14:38:25;;;;;;;13.57;7.07;;;;;;;;;;5073023;28;20098;-74
2022/01/25 14:41:21;;;;;;;21.42;11.75;;;;;;;;;;5073349;28;20032;-70
2022/01/25 14:43:52;;;;;;;19.38;10.32;;;;;;;;;;5073151;28;20039;-72
2022/01/25 14:46:41;;;;;;;22.33;12.20;;;;;;;;;;5073069;28;20369;-72
2022/01/25 14:49:23;;;;;;;20.50;10.32;;;;;;;;;;5073462;28;20039;-72
2022/01/25 14:51:59;;;;;;;22.13;8.48;;;;;;;;;;5073279;28;20139;-73
2022/01/25 14:54:36;;;;;;;18.60;9.23;;;;;;;;;;5072957;28;20090;-71
2022/01/25 14:57:07;;;;;;;21.90;9.35;;;;;;;;;;5072956;28;20259;-72
2022/01/25 14:59:36;;;;;;;16.42;8.02;;;;;;;;;;5073097;28;20055;-71
2022/01/25 15:02:14;;;;;;;17.08;8.98;;;;;;;;;;5073379;28;20024;-75
2022/01/25 15:04:42;;;;;;;19.10;9.48;;;;;;;;;;5072024;28;20495;-71
2022/01/25 15:07:11;;;;;;;17.90;8.40;;;;;;;;;;5073065;28;20025;-70
2022/01/25 15:09:47;;;;;;;16.85;7.60;;;;;;;;;;5073128;28;20450;-72
2022/01/25 15:12:14;;;;;;;16.30;7.50;;;;;;;;;;5072707;28;20098;-69
2022/01/25 15:14:51;;;;;;;15.65;7.57;;;;;;;;;;5072617;28;20036;-70
2022/01/25 15:17:17;;;;;;;16.05;7.43;;;;;;;;;;5066966;28;20047;-67
2022/01/25 15:19:43;;;;;;;13.77;7.43;;;;;;;;;;5070026;28;20032;-68
2022/01/25 15:22:09;;;;;;;18.27;9.32;;;;;;;;;;5051058;28;20396;-69
2022/01/25 15:24:37;;;;;;;18.48;9.70;;;;;;;;;;5055461;28;20402;-71
2022/01/25 15:27:07;;;;;;;18.42;10.48;;;;;;;;;;5067166;28;20089;-69
2022/01/25 15:29:33;;;;;;;21.77;12.20;;;;;;;;;;5072250;28;20657;-71
2022/01/25 15:31:59;;;;;;;22.27;11.98;;;;;;;;;;5072167;28;20032;-73
2022/01/25 15:34:26;;;;;;;19.90;10.65;;;;;;;;;;5072166;28;20029;-70
2022/01/25 15:36:53;;;;;;;17.50;10.38;;;;;;;;;;5069615;28;20497;-68
2022/01/25 15:39:20;;;;;;;20.50;10.52;;;;;;;;;;5062204;28;20028;-69
2022/01/25 15:41:48;;;;;;;18.85;11.00;;;;;;;;;;5061487;28;20522;-68
2022/01/25 15:44:15;;;;;;;19.38;10.20;;;;;;;;;;5074522;28;20124;-70
2022/01/25 15:46:59;;;;;;;19.60;11.70;;;;;;;;;;5075911;28;20024;-70
2022/01/25 15:49:29;;;;;;;18.40;10.77;;;;;;;;;;5075711;28;20287;-71
2022/01/25 15:51:55;;;;;;;21.83;12.07;;;;;;;;;;5074613;28;20028;-68
2022/01/25 15:54:22;;;;;;;22.95;13.20;;;;;;;;;;5073809;28;20044;-72
2022/01/25 15:56:47;;;;;;;30.70;15.57;;;;;;;;;;5075239;28;20031;-71
2022/01/25 15:59:17;;;;;;;39.53;15.55;;;;;;;;;;5075889;28;20044;-70
2022/01/25 16:01:47;;;;;;;26.23;13.25;;;;;;;;;;5075493;28;20036;-73
2022/01/25 16:04:12;;;;;;;27.25;14.65;;;;;;;;;;5071473;28;20036;-70
2022/01/25 16:06:38;;;;;;;31.45;16.17;;;;;;;;;;5073610;28;20032;-68
2022/01/25 16:09:05;;;;;;;30.85;14.63;;;;;;;;;;5073719;28;20072;-70
2022/01/25 16:11:31;;;;;;;31.17;13.10;;;;;;;;;;5074246;28;20027;-70
2022/01/25 16:13:57;;;;;;;22.92;12.18;;;;;;;;;;5073983;28;20033;-66
2022/01/25 16:16:23;;;;;;;20.77;11.45;;;;;;;;;;5073083;28;20025;-65
2022/01/25 16:18:50;;;;;;;23.70;13.30;;;;;;;;;;5073674;28;20421;-66
2022/01/25 16:21:16;;;;;;;21.63;12.23;;;;;;;;;;5073736;28;20471;-68
2022/01/25 16:23:42;;;;;;;20.48;10.93;;;;;;;;;;5073831;28;20064;-69
2022/01/25 16:26:13;;;;;;;17.30;10.77;;;;;;;;;;5074695;28;20048;-67
2022/01/25 16:28:43;;;;;;;20.17;10.65;;;;;;;;;;5072450;28;20099;-66
2022/01/25 16:31:18;;;;;;;23.08;11.07;;;;;;;;;;5072150;28;20029;-67
2022/01/25 16:33:45;;;;;;;25.58;12.35;;;;;;;;;;5074036;28;20064;-67
2022/01/25 16:36:12;;;;;;;30.75;13.27;;;;;;;;;;5073935;28;20021;-65
2022/01/25 16:38:37;;;;;;;29.20;13.05;;;;;;;;;;5073392;28;20437;-65
2022/01/25 16:41:03;;;;;;;33.38;16.33;;;;;;;;;;5073420;28;20044;-70
2022/01/25 16:43:29;;;;;;;30.85;16.15;;;;;;;;;;5073301;28;20123;-67
2022/01/25 16:45:57;;;;;;;31.92;17.45;;;;;;;;;;5073538;28;20077;-68
2022/01/25 16:48:23;;;;;;;42.33;22.25;;;;;;;;;;5073160;28;20044;-67
2022/01/25 16:50:49;;;;;;;58.70;28.42;;;;;;;;;;5073434;28;20033;-66
2022/01/25 16:53:15;;;;;;;83.78;35.30;;;;;;;;;;5072565;28;20040;-65